createdAt,value
2023-03-08T00:00:42.425Z,2.20
2023-03-08T00:03:15.071Z,1.40
2023-03-08T00:05:43.124Z,1.30
2023-03-08T00:08:11.228Z,1.30
2023-03-08T00:10:39.204Z,1.20
2023-03-08T00:13:07.255Z,1.75
2023-03-08T00:15:35.315Z,1.63
2023-03-08T00:18:04.915Z,1.30
2023-03-08T00:20:34.629Z,1.35
2023-03-08T00:23:02.603Z,1.30
2023-03-08T00:25:30.592Z,1.30
2023-03-08T00:27:58.524Z,1.50
2023-03-08T00:30:26.459Z,1.48
2023-03-08T00:32:54.701Z,1.42
2023-03-08T00:35:22.702Z,1.50
2023-03-08T00:37:52.099Z,1.88
2023-03-08T00:40:20.277Z,1.90
2023-03-08T00:42:48.286Z,2.30
2023-03-08T00:45:16.277Z,2.90
2023-03-08T00:47:44.204Z,2.20
2023-03-08T00:50:12.668Z,2.83
2023-03-08T00:52:40.720Z,2.40
2023-03-08T00:55:11.384Z,2.75
2023-03-08T00:57:39.344Z,2.75
2023-03-08T01:00:11.140Z,3.27
2023-03-08T01:02:41.175Z,2.50
2023-03-08T01:05:10.818Z,2.10
2023-03-08T01:07:38.834Z,2.00
2023-03-08T01:10:07.489Z,1.97
2023-03-08T01:12:37.303Z,2.80
2023-03-08T01:15:06.885Z,3.30
2023-03-08T01:17:34.839Z,2.40
2023-03-08T01:20:03.123Z,2.13
2023-03-08T01:22:31.053Z,2.10
2023-03-08T01:24:59.567Z,2.30
2023-03-08T01:27:27.504Z,3.00
2023-03-08T01:29:56.930Z,3.05
2023-03-08T01:32:24.955Z,2.65
2023-03-08T01:34:53.038Z,2.50
2023-03-08T01:37:20.960Z,2.75
2023-03-08T01:39:48.923Z,2.70
2023-03-08T01:42:16.891Z,3.45
2023-03-08T01:44:57.070Z,3.15
2023-03-08T01:47:26.803Z,2.70
2023-03-08T01:49:56.074Z,3.00
2023-03-08T01:52:30.911Z,2.90
2023-03-08T01:55:01.995Z,3.90
2023-03-08T01:57:32.568Z,3.50
2023-03-08T02:00:08.816Z,3.58
2023-03-08T02:02:42.291Z,3.13
2023-03-08T02:05:12.242Z,2.70
2023-03-08T02:07:40.215Z,2.85
2023-03-08T02:10:09.295Z,3.10
2023-03-08T02:12:38.073Z,3.30
2023-03-08T02:15:11.706Z,2.90
2023-03-08T02:17:41.338Z,2.83
2023-03-08T02:20:14.924Z,2.77
2023-03-08T02:22:45.383Z,3.20
2023-03-08T02:25:16.042Z,2.90
2023-03-08T02:27:44.195Z,2.63
2023-03-08T02:30:14.192Z,2.88
2023-03-08T02:32:42.225Z,2.60
2023-03-08T02:35:10.872Z,2.70
2023-03-08T02:37:38.808Z,3.20
2023-03-08T02:40:09.870Z,3.10
2023-03-08T02:42:37.863Z,2.75
2023-03-08T02:45:06.981Z,2.70
2023-03-08T02:47:35.262Z,3.17
2023-03-08T02:50:03.250Z,3.03
2023-03-08T02:52:31.193Z,3.50
2023-03-08T02:54:59.152Z,3.30
2023-03-08T02:57:28.436Z,3.33
2023-03-08T02:59:56.381Z,2.80
2023-03-08T03:02:24.401Z,2.60
2023-03-08T03:04:52.359Z,2.60
2023-03-08T03:07:20.306Z,2.88
2023-03-08T03:09:48.287Z,2.60
2023-03-08T03:12:16.257Z,2.60
2023-03-08T03:14:46.457Z,2.65
2023-03-08T03:17:14.359Z,2.60
2023-03-08T03:19:42.278Z,3.55
2023-03-08T03:22:10.274Z,3.75
2023-03-08T03:24:38.219Z,3.00
2023-03-08T03:27:06.354Z,3.20
2023-03-08T03:29:34.329Z,3.17
2023-03-08T03:32:03.714Z,3.08
2023-03-08T03:34:31.698Z,4.10
2023-03-08T03:36:59.739Z,3.65
2023-03-08T03:39:30.688Z,3.20
2023-03-08T03:41:58.620Z,4.03
2023-03-08T03:44:26.921Z,3.83
2023-03-08T03:46:54.929Z,4.00
2023-03-08T03:49:24.273Z,5.32
2023-03-08T03:51:52.208Z,4.63
2023-03-08T03:54:20.196Z,4.40
2023-03-08T03:56:48.182Z,5.10
2023-03-08T03:59:16.271Z,4.50
2023-03-08T04:01:44.550Z,5.00
2023-03-08T04:04:12.811Z,5.50
2023-03-08T04:06:42.276Z,5.40
2023-03-08T04:09:15.246Z,5.50
2023-03-08T04:11:43.250Z,6.35
2023-03-08T04:14:11.455Z,6.18
2023-03-08T04:16:40.725Z,7.25
2023-03-08T04:19:12.109Z,7.60
2023-03-08T04:21:41.533Z,7.43
2023-03-08T04:24:09.812Z,7.00
2023-03-08T04:26:38.000Z,7.13
2023-03-08T04:29:06.624Z,8.00
2023-03-08T04:31:37.156Z,7.30
2023-03-08T04:34:06.394Z,7.77
2023-03-08T04:36:34.460Z,7.70
2023-03-08T04:39:04.070Z,8.10
2023-03-08T04:41:32.015Z,7.82
2023-03-08T04:44:00.072Z,9.48
2023-03-08T04:46:29.365Z,10.18
2023-03-08T04:48:57.661Z,9.80
2023-03-08T04:51:27.361Z,9.90
2023-03-08T04:53:55.483Z,9.55
2023-03-08T04:56:24.863Z,9.98
2023-03-08T04:58:52.818Z,10.70
2023-03-08T05:01:22.322Z,11.00
2023-03-08T05:03:50.926Z,10.43
2023-03-08T05:06:20.147Z,11.73
2023-03-08T05:08:48.356Z,11.48
2023-03-08T05:11:20.160Z,13.10
2023-03-08T05:13:49.894Z,14.43
2023-03-08T05:16:18.225Z,14.57
2023-03-08T05:18:46.239Z,15.55
2023-03-08T05:21:16.618Z,16.80
2023-03-08T05:23:44.872Z,16.83
2023-03-08T05:26:16.476Z,17.60
2023-03-08T05:28:44.634Z,17.90
2023-03-08T05:31:16.391Z,18.48
2023-03-08T05:33:46.485Z,18.83
2023-03-08T05:36:15.769Z,19.95
2023-03-08T05:38:44.343Z,20.20
2023-03-08T05:41:15.500Z,22.63
2023-03-08T05:43:43.779Z,21.30
2023-03-08T05:46:15.661Z,18.95
2023-03-08T05:48:43.835Z,21.13
2023-03-08T05:51:13.610Z,19.98
2023-03-08T05:53:41.886Z,20.38
2023-03-08T05:56:11.551Z,22.15
2023-03-08T05:58:42.891Z,20.23
2023-03-08T06:01:16.687Z,23.83
2023-03-08T06:03:44.820Z,22.90
2023-03-08T06:06:13.370Z,23.40
2023-03-08T06:08:41.530Z,24.05
2023-03-08T06:11:10.299Z,24.75
2023-03-08T06:13:38.458Z,25.93
2023-03-08T06:16:07.956Z,23.65
2023-03-08T06:18:39.725Z,24.80
2023-03-08T06:21:09.762Z,25.58
2023-03-08T06:23:37.930Z,25.87
2023-03-08T06:26:07.180Z,25.88
2023-03-08T06:28:35.658Z,25.33
2023-03-08T06:31:04.222Z,25.88
2023-03-08T06:33:33.711Z,24.80
2023-03-08T06:36:05.499Z,25.98
2023-03-08T06:38:35.684Z,26.38
2023-03-08T06:41:04.758Z,26.65
2023-03-08T06:43:32.848Z,25.23
2023-03-08T06:46:04.152Z,25.67
2023-03-08T06:48:32.151Z,25.27
2023-03-08T06:51:00.332Z,26.23
2023-03-08T06:53:29.728Z,25.83
2023-03-08T06:55:57.694Z,26.55
2023-03-08T06:58:25.587Z,24.80
2023-03-08T07:00:55.329Z,24.30
2023-03-08T07:03:23.739Z,24.75
2023-03-08T07:05:51.709Z,24.97
2023-03-08T07:08:19.709Z,26.43
2023-03-08T07:10:49.023Z,25.88
2023-03-08T07:13:17.544Z,26.48
2023-03-08T07:15:45.611Z,26.65
2023-03-08T07:18:15.908Z,25.48
2023-03-08T07:20:44.029Z,26.52
2023-03-08T07:23:12.081Z,27.80
2023-03-08T07:25:40.962Z,27.52
2023-03-08T07:28:10.337Z,27.05
2023-03-08T07:30:38.281Z,27.88
2023-03-08T07:33:06.264Z,27.08
2023-03-08T07:35:34.382Z,27.42
2023-03-08T07:38:02.331Z,28.50
2023-03-08T07:40:30.251Z,25.73
2023-03-08T07:42:58.249Z,27.10
2023-03-08T07:45:27.575Z,26.85
2023-03-08T07:47:55.533Z,27.80
2023-03-08T07:50:23.486Z,28.60
2023-03-08T07:52:51.543Z,28.40
2023-03-08T07:55:19.675Z,29.93
2023-03-08T07:57:47.597Z,29.95
2023-03-08T08:00:16.406Z,30.67
2023-03-08T08:02:46.008Z,30.40
2023-03-08T08:05:14.101Z,29.83
2023-03-08T08:07:42.074Z,31.38
2023-03-08T08:10:11.044Z,30.50
2023-03-08T08:12:39.027Z,30.90
2023-03-08T08:15:07.994Z,29.98
2023-03-08T08:17:35.967Z,29.58
2023-03-08T08:20:06.681Z,30.10
2023-03-08T08:22:36.432Z,32.45
2023-03-08T08:25:05.428Z,29.50
2023-03-08T08:27:33.384Z,31.20
2023-03-08T08:30:01.420Z,31.08
2023-03-08T08:32:29.476Z,33.17
2023-03-08T08:34:59.312Z,32.55
2023-03-08T08:37:31.102Z,32.75
2023-03-08T08:39:59.433Z,31.73
2023-03-08T08:42:27.710Z,30.90
2023-03-08T08:44:55.917Z,32.58
2023-03-08T08:47:24.176Z,31.35
2023-03-08T08:49:53.422Z,31.17
2023-03-08T08:52:21.449Z,30.02
2023-03-08T08:54:50.832Z,29.17
2023-03-08T08:57:18.787Z,28.53
2023-03-08T08:59:47.873Z,29.50
2023-03-08T09:02:16.118Z,29.52
2023-03-08T09:04:44.431Z,28.70
2023-03-08T09:07:12.540Z,28.13
2023-03-08T09:09:40.538Z,27.85
2023-03-08T09:12:10.310Z,26.35
2023-03-08T09:14:38.308Z,26.95
2023-03-08T09:17:07.405Z,28.30
2023-03-08T09:19:36.504Z,27.02
2023-03-08T09:22:05.164Z,27.80
2023-03-08T09:24:33.225Z,25.15
2023-03-08T09:27:01.166Z,26.20
2023-03-08T09:29:30.523Z,24.73
2023-03-08T09:31:58.910Z,25.23
2023-03-08T09:34:27.692Z,23.38
2023-03-08T09:36:55.671Z,24.67
2023-03-08T09:39:23.688Z,23.98
2023-03-08T09:41:55.555Z,25.30
2023-03-08T09:45:03.188Z,26.23
2023-03-08T09:47:40.648Z,27.70
2023-03-08T09:50:20.512Z,29.20
2023-03-08T09:52:52.231Z,27.77
2023-03-08T09:55:26.382Z,27.95
2023-03-08T09:57:56.945Z,29.58
2023-03-08T10:00:29.950Z,28.23
2023-03-08T10:03:14.577Z,27.58
2023-03-08T10:05:46.151Z,28.60
2023-03-08T10:08:17.885Z,26.33
2023-03-08T10:10:53.371Z,27.85
2023-03-08T10:13:36.275Z,27.73
2023-03-08T10:16:15.192Z,27.15
2023-03-08T10:18:49.508Z,25.58
2023-03-08T10:21:20.534Z,24.95
2023-03-08T10:23:52.383Z,26.40
2023-03-08T10:26:20.423Z,23.42
2023-03-08T10:28:48.388Z,22.98
2023-03-08T10:31:22.948Z,22.00
2023-03-08T10:33:58.546Z,20.50
2023-03-08T10:36:27.199Z,20.60
2023-03-08T10:39:02.397Z,20.50
2023-03-08T10:41:32.958Z,19.30
2023-03-08T10:44:01.574Z,18.40
2023-03-08T10:46:32.912Z,18.92
2023-03-08T10:49:17.397Z,17.30
2023-03-08T10:51:55.024Z,17.50
2023-03-08T10:54:23.008Z,18.50
2023-03-08T10:56:57.497Z,17.30
2023-03-08T10:59:32.318Z,17.60
2023-03-08T11:02:02.828Z,16.23
2023-03-08T11:04:32.657Z,17.15
2023-03-08T11:07:11.575Z,15.52
2023-03-08T11:09:39.582Z,15.70
2023-03-08T11:12:07.877Z,16.08
2023-03-08T11:14:36.199Z,15.57
2023-03-08T11:17:17.069Z,16.15
2023-03-08T11:19:59.832Z,14.70
2023-03-08T11:22:39.819Z,15.40
2023-03-08T11:25:16.690Z,14.88
2023-03-08T11:28:01.948Z,16.35
2023-03-08T11:30:40.480Z,15.27
2023-03-08T11:33:38.209Z,16.35
2023-03-08T11:36:15.407Z,17.05
2023-03-08T11:38:43.949Z,17.73
2023-03-08T11:41:21.111Z,17.90
2023-03-08T11:44:10.559Z,16.65
2023-03-08T11:46:50.584Z,17.85
2023-03-08T11:49:34.665Z,17.42
2023-03-08T11:52:18.605Z,18.30
2023-03-08T11:54:56.785Z,17.70
2023-03-08T11:57:28.880Z,18.08
2023-03-08T12:00:00.898Z,17.50
2023-03-08T12:02:31.563Z,17.55
2023-03-08T12:05:04.741Z,17.70
2023-03-08T12:07:38.634Z,16.75
2023-03-08T12:10:16.915Z,17.58
2023-03-08T12:12:51.003Z,17.98
2023-03-08T12:15:28.535Z,17.27
2023-03-08T12:18:03.772Z,17.63
2023-03-08T12:20:36.216Z,16.45
2023-03-08T12:23:19.684Z,15.80
2023-03-08T12:25:51.466Z,16.90
2023-03-08T12:28:24.460Z,17.27
2023-03-08T12:31:09.242Z,15.50
2023-03-08T12:33:41.078Z,15.10
2023-03-08T12:36:10.381Z,15.95
2023-03-08T12:38:42.431Z,15.65
2023-03-08T12:41:24.808Z,14.52
2023-03-08T12:44:04.142Z,15.90
2023-03-08T12:47:01.691Z,16.58
2023-03-08T12:49:34.397Z,15.10
2023-03-08T12:52:06.454Z,14.77
2023-03-08T12:54:36.850Z,15.07
2023-03-08T12:57:17.146Z,14.40
2023-03-08T12:59:46.679Z,15.75
2023-03-08T13:02:30.646Z,15.10
2023-03-08T13:05:21.470Z,13.88
2023-03-08T13:08:06.305Z,14.57
2023-03-08T13:10:38.821Z,14.90
2023-03-08T13:13:37.490Z,15.57
2023-03-08T13:16:31.760Z,15.77
2023-03-08T13:19:12.448Z,15.55
2023-03-08T13:21:47.722Z,14.00
2023-03-08T13:24:23.645Z,14.37
2023-03-08T13:27:05.348Z,14.85
2023-03-08T13:29:34.774Z,14.77
2023-03-08T13:32:08.664Z,14.27
2023-03-08T13:34:36.917Z,14.25
2023-03-08T13:37:04.995Z,14.48
2023-03-08T13:39:33.423Z,14.43
2023-03-08T13:42:10.793Z,13.90
2023-03-08T13:44:39.370Z,13.80
2023-03-08T13:47:22.275Z,14.50
2023-03-08T13:49:52.079Z,15.43
2023-03-08T13:52:22.933Z,15.15
2023-03-08T13:54:54.842Z,14.60
2023-03-08T13:57:26.501Z,14.07
2023-03-08T13:59:56.758Z,14.50
2023-03-08T14:02:26.915Z,15.27
2023-03-08T14:04:55.542Z,16.40
2023-03-08T14:07:28.017Z,15.70
2023-03-08T14:09:56.420Z,16.85
2023-03-08T14:12:29.970Z,16.45
2023-03-08T14:15:02.032Z,15.73
2023-03-08T14:17:32.760Z,17.30
2023-03-08T14:20:05.186Z,17.67
2023-03-08T14:22:41.102Z,17.52
2023-03-08T14:25:27.080Z,18.33
2023-03-08T14:27:57.233Z,17.92
2023-03-08T14:30:26.721Z,16.95
2023-03-08T14:33:01.310Z,17.38
2023-03-08T14:35:31.891Z,17.80
2023-03-08T14:38:00.207Z,17.50
2023-03-08T14:40:31.252Z,18.10
2023-03-08T14:43:04.714Z,19.13
2023-03-08T14:45:37.948Z,17.73
2023-03-08T14:48:24.391Z,17.50
2023-03-08T14:50:55.209Z,17.85
2023-03-08T14:53:41.849Z,17.77
2023-03-08T14:56:14.296Z,19.15
2023-03-08T14:58:46.837Z,18.10
2023-03-08T15:01:25.619Z,18.55
2023-03-08T15:03:53.642Z,18.60
2023-03-08T15:06:23.867Z,17.23
2023-03-08T15:08:52.364Z,19.20
2023-03-08T15:11:20.910Z,18.33
2023-03-08T15:13:50.622Z,18.77
2023-03-08T15:16:18.791Z,19.90
2023-03-08T15:18:46.746Z,18.92
2023-03-08T15:21:17.131Z,18.52
2023-03-08T15:23:47.480Z,19.52
2023-03-08T15:26:20.910Z,19.90
2023-03-08T15:28:50.324Z,19.48
2023-03-08T15:31:18.493Z,20.27
2023-03-08T15:33:46.447Z,20.48
2023-03-08T15:36:15.832Z,20.60
2023-03-08T15:38:44.329Z,20.60
2023-03-08T15:41:12.991Z,20.30
2023-03-08T15:43:41.032Z,21.08
2023-03-08T15:46:12.964Z,20.50
2023-03-08T15:48:41.028Z,20.20
2023-03-08T15:51:17.502Z,19.73
2023-03-08T15:53:45.479Z,20.20
2023-03-08T15:56:13.434Z,20.77
2023-03-08T15:58:41.482Z,19.23
2023-03-08T16:01:11.998Z,19.10
2023-03-08T16:03:40.363Z,19.48
2023-03-08T16:06:10.615Z,18.60
2023-03-08T16:08:39.443Z,17.83
2023-03-08T16:11:07.999Z,18.65
2023-03-08T16:13:36.395Z,18.15
2023-03-08T16:16:05.546Z,17.27
2023-03-08T16:18:35.925Z,16.63
2023-03-08T16:21:08.678Z,17.30
2023-03-08T16:23:36.731Z,16.88
2023-03-08T16:26:15.117Z,16.00
2023-03-08T16:28:44.924Z,16.13
2023-03-08T16:31:13.596Z,14.60
2023-03-08T16:33:42.967Z,16.40
2023-03-08T16:36:12.740Z,15.30
2023-03-08T16:38:41.493Z,14.45
2023-03-08T16:41:13.279Z,17.05
2023-03-08T16:43:49.510Z,14.88
2023-03-08T16:46:19.633Z,15.30
2023-03-08T16:48:50.342Z,15.40
2023-03-08T16:51:20.105Z,15.52
2023-03-08T16:53:48.250Z,15.50
2023-03-08T16:56:19.052Z,14.88
2023-03-08T16:58:47.147Z,15.25
2023-03-08T17:01:16.288Z,16.05
2023-03-08T17:03:44.741Z,15.63
2023-03-08T17:06:16.873Z,16.33
2023-03-08T17:08:44.871Z,16.00
2023-03-08T17:11:16.611Z,16.33
2023-03-08T17:13:44.850Z,16.95
2023-03-08T17:16:13.612Z,15.65
2023-03-08T17:18:41.522Z,15.48
2023-03-08T17:21:09.734Z,15.20
2023-03-08T17:23:39.156Z,15.10
2023-03-08T17:26:09.307Z,16.65
2023-03-08T17:28:38.368Z,15.80
2023-03-08T17:31:09.848Z,14.00
2023-03-08T17:33:38.508Z,14.97
2023-03-08T17:36:08.422Z,14.88
2023-03-08T17:38:37.792Z,15.20
2023-03-08T17:41:07.576Z,15.05
2023-03-08T17:43:35.808Z,15.60
2023-03-08T17:46:06.604Z,14.50
2023-03-08T17:48:35.683Z,14.48
2023-03-08T17:51:05.195Z,16.52
2023-03-08T17:53:33.255Z,15.25
2023-03-08T17:56:05.975Z,15.57
2023-03-08T17:58:34.295Z,14.73
2023-03-08T18:01:09.155Z,15.60
2023-03-08T18:03:37.166Z,15.83
2023-03-08T18:06:06.213Z,16.13
2023-03-08T18:08:34.805Z,15.90
2023-03-08T18:11:04.243Z,16.45
2023-03-08T18:13:32.217Z,15.85
2023-03-08T18:16:00.245Z,18.35
2023-03-08T18:18:28.222Z,17.38
2023-03-08T18:21:10.631Z,16.40
2023-03-08T18:23:41.804Z,18.30
2023-03-08T18:26:11.757Z,17.45
2023-03-08T18:28:39.732Z,17.40
2023-03-08T18:31:09.014Z,17.50
2023-03-08T18:33:37.054Z,18.40
2023-03-08T18:36:05.417Z,17.98
2023-03-08T18:38:33.385Z,18.40
2023-03-08T18:41:01.421Z,18.17
2023-03-08T18:43:31.024Z,17.55
2023-03-08T18:45:58.954Z,19.50
2023-03-08T18:48:26.874Z,19.52
2023-03-08T18:50:54.843Z,18.70
2023-03-08T18:53:22.852Z,20.65
2023-03-08T18:55:55.284Z,19.10
2023-03-08T18:58:24.539Z,19.00
2023-03-08T19:00:54.799Z,20.25
2023-03-08T19:03:22.936Z,20.77
2023-03-08T19:05:50.918Z,20.20
2023-03-08T19:08:18.974Z,20.25
2023-03-08T19:10:47.049Z,19.85
2023-03-08T19:13:15.134Z,19.47
2023-03-08T19:15:43.168Z,20.45
2023-03-08T19:18:15.247Z,19.13
2023-03-08T19:20:43.970Z,20.35
2023-03-08T19:23:12.171Z,19.88
2023-03-08T19:26:00.251Z,19.77
2023-03-08T19:28:28.443Z,20.55
2023-03-08T19:30:56.568Z,20.58
2023-03-08T19:33:30.804Z,21.30
2023-03-08T19:35:59.230Z,21.08
2023-03-08T19:38:27.175Z,20.73
2023-03-08T19:40:55.435Z,20.35
2023-03-08T19:43:23.368Z,21.88
2023-03-08T19:45:51.727Z,22.23
2023-03-08T19:48:19.896Z,22.13
2023-03-08T19:50:50.847Z,22.58
2023-03-08T19:53:18.801Z,22.90
2023-03-08T19:55:50.901Z,22.27
2023-03-08T19:58:19.484Z,23.50
2023-03-08T20:00:48.752Z,23.50
2023-03-08T20:03:18.809Z,22.13
2023-03-08T20:05:48.523Z,22.52
2023-03-08T20:08:17.884Z,21.97
2023-03-08T20:10:45.863Z,21.27
2023-03-08T20:13:13.896Z,21.33
2023-03-08T20:15:41.964Z,21.20
2023-03-08T20:18:10.116Z,21.23
2023-03-08T20:20:38.404Z,21.30
2023-03-08T20:23:06.560Z,21.23
2023-03-08T20:25:35.874Z,20.40
2023-03-08T20:28:03.847Z,20.88
2023-03-08T20:30:31.859Z,19.30
2023-03-08T20:32:59.794Z,21.60
2023-03-08T20:35:27.877Z,21.35
2023-03-08T20:37:55.835Z,20.90
2023-03-08T20:40:23.900Z,21.50
2023-03-08T20:42:57.672Z,20.58
2023-03-08T20:45:26.573Z,19.13
2023-03-08T20:47:57.344Z,19.13
2023-03-08T20:50:27.418Z,18.30
2023-03-08T20:52:55.403Z,18.33
2023-03-08T20:55:23.366Z,18.50
2023-03-08T20:57:53.870Z,17.37
2023-03-08T21:00:25.155Z,17.73
2023-03-08T21:02:53.419Z,16.77
2023-03-08T21:05:21.402Z,15.90
2023-03-08T21:07:49.513Z,17.10
2023-03-08T21:10:17.983Z,16.00
2023-03-08T21:12:46.389Z,17.00
2023-03-08T21:15:16.180Z,14.88
2023-03-08T21:17:44.127Z,15.50
2023-03-08T21:20:13.248Z,15.50
2023-03-08T21:22:41.227Z,15.48
2023-03-08T21:25:09.978Z,15.60
2023-03-08T21:27:38.262Z,15.88
2023-03-08T21:30:07.341Z,15.20
2023-03-08T21:32:36.675Z,15.20
2023-03-08T21:35:05.094Z,14.82
2023-03-08T21:37:33.107Z,14.10
2023-03-08T21:40:01.061Z,14.40
2023-03-08T21:42:29.025Z,15.10
2023-03-08T21:44:56.976Z,15.03
2023-03-08T21:47:24.965Z,15.17
2023-03-08T21:49:54.301Z,13.23
2023-03-08T21:52:22.266Z,16.10
2023-03-08T21:54:50.176Z,16.55
2023-03-08T21:57:18.204Z,16.30
2023-03-08T21:59:46.123Z,16.90
2023-03-08T22:02:14.188Z,17.17
2023-03-08T22:04:42.204Z,17.50
2023-03-08T22:07:11.704Z,17.58
2023-03-08T22:09:39.655Z,17.85
2023-03-08T22:12:08.670Z,17.75
2023-03-08T22:14:36.651Z,19.52
2023-03-08T22:17:04.625Z,17.90
2023-03-08T22:19:32.643Z,18.50
2023-03-08T22:22:00.828Z,18.48
2023-03-08T22:24:32.746Z,18.27
2023-03-08T22:27:01.409Z,17.80
2023-03-08T22:29:29.431Z,18.50
2023-03-08T22:31:57.563Z,17.63
2023-03-08T22:34:25.501Z,17.50
2023-03-08T22:36:53.586Z,17.45
2023-03-08T22:39:21.587Z,17.75
2023-03-08T22:41:50.955Z,16.95
2023-03-08T22:44:18.904Z,16.80
2023-03-08T22:46:46.968Z,17.02
2023-03-08T22:49:16.965Z,17.10
2023-03-08T22:51:45.101Z,16.60
2023-03-08T22:54:16.386Z,16.73
2023-03-08T22:56:44.410Z,16.08
2023-03-08T22:59:14.186Z,15.88
2023-03-08T23:01:42.327Z,16.95
2023-03-08T23:04:11.828Z,18.27
2023-03-08T23:06:39.795Z,16.20
2023-03-08T23:09:10.388Z,15.60
2023-03-08T23:11:39.180Z,16.70
2023-03-08T23:14:08.270Z,15.18
2023-03-08T23:16:38.012Z,16.97
2023-03-08T23:19:06.018Z,17.10
2023-03-08T23:21:35.790Z,16.73
2023-03-08T23:24:03.801Z,15.98
2023-03-08T23:26:32.841Z,16.23
2023-03-08T23:29:03.302Z,17.40
2023-03-08T23:31:33.192Z,16.15
2023-03-08T23:34:03.944Z,17.00
2023-03-08T23:36:33.810Z,16.98
2023-03-08T23:39:03.690Z,16.20
2023-03-08T23:41:32.633Z,16.92
2023-03-08T23:44:02.041Z,16.10
2023-03-08T23:46:30.275Z,16.10
2023-03-08T23:48:59.559Z,17.08
2023-03-08T23:51:31.228Z,15.02
2023-03-08T23:54:01.467Z,15.55
2023-03-08T23:56:31.137Z,15.63
2023-03-08T23:59:02.434Z,15.60
